sensor_id;sensor_type;location;lat;lon;timestamp;P1;durP1;ratioP1;P2;durP2;ratioP2
22034;SDS011;11181;51.002;4.356;2022-08-19T00:00:03;15.10;;;13.07;;
22034;SDS011;11181;51.002;4.356;2022-08-19T00:02:34;15.67;;;13.30;;
22034;SDS011;11181;51.002;4.356;2022-08-19T00:05:02;15.53;;;13.53;;
22034;SDS011;11181;51.002;4.356;2022-08-19T00:07:30;18.07;;;14.70;;
22034;SDS011;11181;51.002;4.356;2022-08-19T00:10:00;21.40;;;15.50;;
22034;SDS011;11181;51.002;4.356;2022-08-19T00:12:29;16.47;;;14.67;;
22034;SDS011;11181;51.002;4.356;2022-08-19T00:14:56;18.50;;;14.50;;
22034;SDS011;11181;51.002;4.356;2022-08-19T00:17:23;20.30;;;16.73;;
22034;SDS011;11181;51.002;4.356;2022-08-19T00:19:51;21.83;;;17.23;;
22034;SDS011;11181;51.002;4.356;2022-08-19T00:22:20;21.40;;;19.10;;
22034;SDS011;11181;51.002;4.356;2022-08-19T00:24:47;24.17;;;18.80;;
22034;SDS011;11181;51.002;4.356;2022-08-19T00:27:14;23.60;;;19.37;;
22034;SDS011;11181;51.002;4.356;2022-08-19T00:29:41;25.93;;;19.10;;
22034;SDS011;11181;51.002;4.356;2022-08-19T00:32:08;23.60;;;19.03;;
22034;SDS011;11181;51.002;4.356;2022-08-19T00:34:37;25.43;;;20.20;;
22034;SDS011;11181;51.002;4.356;2022-08-19T00:37:08;24.73;;;21.33;;
22034;SDS011;11181;51.002;4.356;2022-08-19T00:39:35;29.77;;;21.93;;
22034;SDS011;11181;51.002;4.356;2022-08-19T00:42:02;30.30;;;23.80;;
22034;SDS011;11181;51.002;4.356;2022-08-19T00:44:31;29.93;;;23.23;;
22034;SDS011;11181;51.002;4.356;2022-08-19T00:46:58;36.10;;;24.93;;
22034;SDS011;11181;51.002;4.356;2022-08-19T00:49:27;35.00;;;25.10;;
22034;SDS011;11181;51.002;4.356;2022-08-19T00:52:00;35.87;;;26.13;;
22034;SDS011;11181;51.002;4.356;2022-08-19T00:54:31;31.20;;;24.67;;
22034;SDS011;11181;51.002;4.356;2022-08-19T00:56:59;33.73;;;25.77;;
22034;SDS011;11181;51.002;4.356;2022-08-19T00:59:28;33.40;;;25.13;;
22034;SDS011;11181;51.002;4.356;2022-08-19T01:01:55;34.43;;;25.47;;
22034;SDS011;11181;51.002;4.356;2022-08-19T01:04:22;33.67;;;25.27;;
22034;SDS011;11181;51.002;4.356;2022-08-19T01:06:49;37.97;;;26.33;;
22034;SDS011;11181;51.002;4.356;2022-08-19T01:09:16;36.97;;;26.00;;
22034;SDS011;11181;51.002;4.356;2022-08-19T01:11:45;33.40;;;25.77;;
22034;SDS011;11181;51.002;4.356;2022-08-19T01:14:12;33.60;;;25.90;;
22034;SDS011;11181;51.002;4.356;2022-08-19T01:16:41;33.50;;;26.47;;
22034;SDS011;11181;51.002;4.356;2022-08-19T01:19:12;37.13;;;26.83;;
22034;SDS011;11181;51.002;4.356;2022-08-19T01:21:45;37.07;;;26.43;;
22034;SDS011;11181;51.002;4.356;2022-08-19T01:24:17;33.70;;;25.73;;
22034;SDS011;11181;51.002;4.356;2022-08-19T01:26:46;36.17;;;27.00;;
22034;SDS011;11181;51.002;4.356;2022-08-19T01:29:13;35.33;;;25.13;;
22034;SDS011;11181;51.002;4.356;2022-08-19T01:31:40;33.57;;;25.43;;
22034;SDS011;11181;51.002;4.356;2022-08-19T01:34:08;35.47;;;27.07;;
22034;SDS011;11181;51.002;4.356;2022-08-19T01:36:36;38.03;;;26.73;;
22034;SDS011;11181;51.002;4.356;2022-08-19T01:39:07;32.27;;;24.47;;
22034;SDS011;11181;51.002;4.356;2022-08-19T01:41:37;37.67;;;28.70;;
22034;SDS011;11181;51.002;4.356;2022-08-19T01:44:05;35.57;;;26.90;;
22034;SDS011;11181;51.002;4.356;2022-08-19T01:46:33;35.17;;;26.53;;
22034;SDS011;11181;51.002;4.356;2022-08-19T01:49:01;36.50;;;27.10;;
22034;SDS011;11181;51.002;4.356;2022-08-19T01:51:28;38.53;;;27.03;;
22034;SDS011;11181;51.002;4.356;2022-08-19T01:53:56;39.00;;;28.13;;
22034;SDS011;11181;51.002;4.356;2022-08-19T01:56:23;35.87;;;26.33;;
22034;SDS011;11181;51.002;4.356;2022-08-19T01:58:53;38.13;;;27.73;;
22034;SDS011;11181;51.002;4.356;2022-08-19T02:01:21;38.70;;;28.13;;
22034;SDS011;11181;51.002;4.356;2022-08-19T02:03:48;41.20;;;30.67;;
22034;SDS011;11181;51.002;4.356;2022-08-19T02:06:16;39.13;;;30.03;;
22034;SDS011;11181;51.002;4.356;2022-08-19T02:08:43;41.87;;;30.00;;
22034;SDS011;11181;51.002;4.356;2022-08-19T02:11:18;39.90;;;28.17;;
22034;SDS011;11181;51.002;4.356;2022-08-19T02:13:47;41.97;;;28.93;;
22034;SDS011;11181;51.002;4.356;2022-08-19T02:16:16;42.60;;;28.70;;
22034;SDS011;11181;51.002;4.356;2022-08-19T02:18:44;43.80;;;28.77;;
22034;SDS011;11181;51.002;4.356;2022-08-19T02:21:13;42.90;;;29.43;;
22034;SDS011;11181;51.002;4.356;2022-08-19T02:23:40;38.80;;;27.67;;
22034;SDS011;11181;51.002;4.356;2022-08-19T02:26:07;40.17;;;28.37;;
22034;SDS011;11181;51.002;4.356;2022-08-19T02:28:35;39.43;;;26.20;;
22034;SDS011;11181;51.002;4.356;2022-08-19T02:31:02;39.37;;;26.60;;
22034;SDS011;11181;51.002;4.356;2022-08-19T02:33:31;41.40;;;27.77;;
22034;SDS011;11181;51.002;4.356;2022-08-19T02:35:58;39.07;;;27.87;;
22034;SDS011;11181;51.002;4.356;2022-08-19T02:38:25;40.40;;;28.27;;
22034;SDS011;11181;51.002;4.356;2022-08-19T02:40:51;37.23;;;26.63;;
22034;SDS011;11181;51.002;4.356;2022-08-19T02:43:20;37.03;;;26.33;;
22034;SDS011;11181;51.002;4.356;2022-08-19T02:45:48;39.00;;;26.50;;
22034;SDS011;11181;51.002;4.356;2022-08-19T02:48:16;34.07;;;25.83;;
22034;SDS011;11181;51.002;4.356;2022-08-19T02:50:46;39.17;;;25.80;;
22034;SDS011;11181;51.002;4.356;2022-08-19T02:53:17;34.57;;;23.97;;
22034;SDS011;11181;51.002;4.356;2022-08-19T02:55:44;33.87;;;23.97;;
22034;SDS011;11181;51.002;4.356;2022-08-19T02:58:13;34.53;;;25.40;;
22034;SDS011;11181;51.002;4.356;2022-08-19T03:00:41;34.23;;;24.00;;
22034;SDS011;11181;51.002;4.356;2022-08-19T03:03:09;35.57;;;25.23;;
22034;SDS011;11181;51.002;4.356;2022-08-19T03:05:37;33.70;;;24.07;;
22034;SDS011;11181;51.002;4.356;2022-08-19T03:08:05;33.97;;;23.03;;
22034;SDS011;11181;51.002;4.356;2022-08-19T03:10:33;31.33;;;22.67;;
22034;SDS011;11181;51.002;4.356;2022-08-19T03:13:07;33.30;;;23.23;;
22034;SDS011;11181;51.002;4.356;2022-08-19T03:15:34;32.50;;;23.47;;
22034;SDS011;11181;51.002;4.356;2022-08-19T03:18:00;31.83;;;22.67;;
22034;SDS011;11181;51.002;4.356;2022-08-19T03:20:27;30.47;;;21.93;;
22034;SDS011;11181;51.002;4.356;2022-08-19T03:22:54;33.23;;;22.80;;
22034;SDS011;11181;51.002;4.356;2022-08-19T03:25:22;31.50;;;22.13;;
22034;SDS011;11181;51.002;4.356;2022-08-19T03:27:49;29.80;;;21.73;;
22034;SDS011;11181;51.002;4.356;2022-08-19T03:30:16;31.80;;;21.60;;
22034;SDS011;11181;51.002;4.356;2022-08-19T03:32:43;32.17;;;21.60;;
22034;SDS011;11181;51.002;4.356;2022-08-19T03:35:10;28.33;;;20.27;;
22034;SDS011;11181;51.002;4.356;2022-08-19T03:37:37;29.60;;;20.23;;
22034;SDS011;11181;51.002;4.356;2022-08-19T03:40:04;27.20;;;18.50;;
22034;SDS011;11181;51.002;4.356;2022-08-19T03:42:34;28.77;;;20.67;;
22034;SDS011;11181;51.002;4.356;2022-08-19T03:45:02;29.37;;;20.77;;
22034;SDS011;11181;51.002;4.356;2022-08-19T03:47:29;25.60;;;20.03;;
22034;SDS011;11181;51.002;4.356;2022-08-19T03:49:56;29.90;;;19.73;;
22034;SDS011;11181;51.002;4.356;2022-08-19T03:52:23;23.60;;;18.10;;
22034;SDS011;11181;51.002;4.356;2022-08-19T03:54:50;25.27;;;18.93;;
22034;SDS011;11181;51.002;4.356;2022-08-19T03:57:17;31.00;;;18.80;;
22034;SDS011;11181;51.002;4.356;2022-08-19T03:59:45;28.07;;;18.97;;
22034;SDS011;11181;51.002;4.356;2022-08-19T04:02:12;28.57;;;18.77;;
22034;SDS011;11181;51.002;4.356;2022-08-19T04:04:40;27.03;;;18.00;;
22034;SDS011;11181;51.002;4.356;2022-08-19T04:07:09;24.23;;;16.90;;
22034;SDS011;11181;51.002;4.356;2022-08-19T04:09:37;30.07;;;18.33;;
22034;SDS011;11181;51.002;4.356;2022-08-19T04:12:05;23.60;;;17.17;;
22034;SDS011;11181;51.002;4.356;2022-08-19T04:14:32;28.27;;;18.73;;
22034;SDS011;11181;51.002;4.356;2022-08-19T04:17:02;25.00;;;17.33;;
22034;SDS011;11181;51.002;4.356;2022-08-19T04:19:30;22.13;;;16.70;;
22034;SDS011;11181;51.002;4.356;2022-08-19T04:21:58;23.40;;;17.10;;
22034;SDS011;11181;51.002;4.356;2022-08-19T04:24:25;26.40;;;17.53;;
22034;SDS011;11181;51.002;4.356;2022-08-19T04:26:52;26.00;;;16.70;;
22034;SDS011;11181;51.002;4.356;2022-08-19T04:29:20;28.00;;;17.27;;
22034;SDS011;11181;51.002;4.356;2022-08-19T04:31:49;22.57;;;15.20;;
22034;SDS011;11181;51.002;4.356;2022-08-19T04:34:20;27.10;;;18.00;;
22034;SDS011;11181;51.002;4.356;2022-08-19T04:36:49;25.60;;;15.93;;
22034;SDS011;11181;51.002;4.356;2022-08-19T04:39:18;22.70;;;15.77;;
22034;SDS011;11181;51.002;4.356;2022-08-19T04:41:46;23.60;;;16.47;;
22034;SDS011;11181;51.002;4.356;2022-08-19T04:44:30;23.13;;;16.10;;
22034;SDS011;11181;51.002;4.356;2022-08-19T04:46:58;24.63;;;16.77;;
22034;SDS011;11181;51.002;4.356;2022-08-19T04:49:27;24.97;;;17.07;;
22034;SDS011;11181;51.002;4.356;2022-08-19T04:51:55;22.17;;;15.47;;
22034;SDS011;11181;51.002;4.356;2022-08-19T04:54:22;23.97;;;16.13;;
22034;SDS011;11181;51.002;4.356;2022-08-19T04:56:50;28.93;;;17.40;;
22034;SDS011;11181;51.002;4.356;2022-08-19T04:59:18;26.50;;;17.10;;
22034;SDS011;11181;51.002;4.356;2022-08-19T05:01:46;22.57;;;15.60;;
22034;SDS011;11181;51.002;4.356;2022-08-19T05:04:15;23.73;;;15.87;;
22034;SDS011;11181;51.002;4.356;2022-08-19T05:06:45;24.60;;;15.70;;
22034;SDS011;11181;51.002;4.356;2022-08-19T05:09:13;22.30;;;15.57;;
22034;SDS011;11181;51.002;4.356;2022-08-19T05:11:41;20.53;;;14.80;;
22034;SDS011;11181;51.002;4.356;2022-08-19T05:14:09;28.57;;;15.27;;
22034;SDS011;11181;51.002;4.356;2022-08-19T05:16:38;20.57;;;14.50;;
22034;SDS011;11181;51.002;4.356;2022-08-19T05:19:05;19.07;;;13.77;;
22034;SDS011;11181;51.002;4.356;2022-08-19T05:21:51;20.13;;;14.47;;
22034;SDS011;11181;51.002;4.356;2022-08-19T05:24:35;21.23;;;14.80;;
22034;SDS011;11181;51.002;4.356;2022-08-19T05:27:03;21.03;;;13.87;;
22034;SDS011;11181;51.002;4.356;2022-08-19T05:29:31;22.60;;;13.80;;
22034;SDS011;11181;51.002;4.356;2022-08-19T05:32:00;22.00;;;14.27;;
22034;SDS011;11181;51.002;4.356;2022-08-19T05:34:29;21.20;;;12.67;;
22034;SDS011;11181;51.002;4.356;2022-08-19T05:36:59;20.50;;;14.03;;
22034;SDS011;11181;51.002;4.356;2022-08-19T05:39:30;19.60;;;12.90;;
22034;SDS011;11181;51.002;4.356;2022-08-19T05:41:59;17.20;;;13.13;;
22034;SDS011;11181;51.002;4.356;2022-08-19T05:44:29;17.23;;;12.40;;
22034;SDS011;11181;51.002;4.356;2022-08-19T05:46:57;16.83;;;11.87;;
22034;SDS011;11181;51.002;4.356;2022-08-19T05:49:25;17.73;;;11.10;;
22034;SDS011;11181;51.002;4.356;2022-08-19T05:51:53;16.03;;;11.33;;
22034;SDS011;11181;51.002;4.356;2022-08-19T05:54:22;18.90;;;12.07;;
22034;SDS011;11181;51.002;4.356;2022-08-19T05:56:50;18.30;;;12.10;;
22034;SDS011;11181;51.002;4.356;2022-08-19T05:59:18;18.33;;;11.83;;
22034;SDS011;11181;51.002;4.356;2022-08-19T06:01:47;17.93;;;12.47;;
22034;SDS011;11181;51.002;4.356;2022-08-19T06:04:16;16.73;;;11.63;;
22034;SDS011;11181;51.002;4.356;2022-08-19T06:06:44;20.90;;;11.70;;
22034;SDS011;11181;51.002;4.356;2022-08-19T06:09:11;17.40;;;10.83;;
22034;SDS011;11181;51.002;4.356;2022-08-19T06:11:41;19.60;;;11.33;;
22034;SDS011;11181;51.002;4.356;2022-08-19T06:14:10;18.03;;;11.47;;
22034;SDS011;11181;51.002;4.356;2022-08-19T06:16:39;15.50;;;10.97;;
22034;SDS011;11181;51.002;4.356;2022-08-19T06:19:08;18.60;;;12.03;;
22034;SDS011;11181;51.002;4.356;2022-08-19T06:21:37;14.73;;;10.97;;
22034;SDS011;11181;51.002;4.356;2022-08-19T06:24:06;14.77;;;9.60;;
22034;SDS011;11181;51.002;4.356;2022-08-19T06:26:37;14.07;;;9.60;;
22034;SDS011;11181;51.002;4.356;2022-08-19T06:29:07;14.27;;;10.10;;
22034;SDS011;11181;51.002;4.356;2022-08-19T06:31:36;17.70;;;10.73;;
22034;SDS011;11181;51.002;4.356;2022-08-19T06:34:04;18.47;;;9.17;;
22034;SDS011;11181;51.002;4.356;2022-08-19T06:36:32;12.80;;;8.97;;
22034;SDS011;11181;51.002;4.356;2022-08-19T06:39:02;14.87;;;9.70;;
22034;SDS011;11181;51.002;4.356;2022-08-19T06:41:34;17.60;;;10.37;;
22034;SDS011;11181;51.002;4.356;2022-08-19T06:44:03;14.97;;;10.53;;
22034;SDS011;11181;51.002;4.356;2022-08-19T06:46:31;13.67;;;9.10;;
22034;SDS011;11181;51.002;4.356;2022-08-19T06:48:58;15.37;;;9.20;;
22034;SDS011;11181;51.002;4.356;2022-08-19T06:51:26;14.90;;;9.63;;
22034;SDS011;11181;51.002;4.356;2022-08-19T06:53:54;16.43;;;8.63;;
22034;SDS011;11181;51.002;4.356;2022-08-19T06:56:22;13.47;;;8.53;;
22034;SDS011;11181;51.002;4.356;2022-08-19T06:58:59;16.30;;;9.10;;
22034;SDS011;11181;51.002;4.356;2022-08-19T07:01:27;17.73;;;9.13;;
22034;SDS011;11181;51.002;4.356;2022-08-19T07:03:55;18.80;;;9.20;;
22034;SDS011;11181;51.002;4.356;2022-08-19T07:06:22;12.30;;;8.87;;
22034;SDS011;11181;51.002;4.356;2022-08-19T07:08:50;15.07;;;9.60;;
22034;SDS011;11181;51.002;4.356;2022-08-19T07:11:18;19.37;;;9.27;;
22034;SDS011;11181;51.002;4.356;2022-08-19T07:13:46;17.03;;;8.23;;
22034;SDS011;11181;51.002;4.356;2022-08-19T07:16:15;14.43;;;8.93;;
22034;SDS011;11181;51.002;4.356;2022-08-19T07:18:44;12.47;;;8.77;;
22034;SDS011;11181;51.002;4.356;2022-08-19T07:21:13;11.00;;;8.27;;
22034;SDS011;11181;51.002;4.356;2022-08-19T07:23:42;14.37;;;8.63;;
22034;SDS011;11181;51.002;4.356;2022-08-19T07:26:10;13.70;;;8.90;;
22034;SDS011;11181;51.002;4.356;2022-08-19T07:28:39;16.20;;;9.10;;
22034;SDS011;11181;51.002;4.356;2022-08-19T07:31:09;12.07;;;8.03;;
22034;SDS011;11181;51.002;4.356;2022-08-19T07:33:36;12.17;;;8.53;;
22034;SDS011;11181;51.002;4.356;2022-08-19T07:36:04;14.60;;;8.13;;
22034;SDS011;11181;51.002;4.356;2022-08-19T07:38:33;17.00;;;9.37;;
22034;SDS011;11181;51.002;4.356;2022-08-19T07:41:00;15.50;;;8.50;;
22034;SDS011;11181;51.002;4.356;2022-08-19T07:43:27;14.03;;;8.47;;
22034;SDS011;11181;51.002;4.356;2022-08-19T07:45:55;15.73;;;8.33;;
22034;SDS011;11181;51.002;4.356;2022-08-19T07:48:22;11.87;;;6.57;;
22034;SDS011;11181;51.002;4.356;2022-08-19T07:50:50;11.53;;;7.30;;
22034;SDS011;11181;51.002;4.356;2022-08-19T07:53:17;10.07;;;6.63;;
22034;SDS011;11181;51.002;4.356;2022-08-19T07:55:46;11.03;;;6.27;;
22034;SDS011;11181;51.002;4.356;2022-08-19T07:58:14;9.93;;;5.03;;
22034;SDS011;11181;51.002;4.356;2022-08-19T08:00:43;10.43;;;5.37;;
22034;SDS011;11181;51.002;4.356;2022-08-19T08:03:11;7.60;;;6.00;;
22034;SDS011;11181;51.002;4.356;2022-08-19T08:05:38;8.27;;;5.13;;
22034;SDS011;11181;51.002;4.356;2022-08-19T08:08:23;13.30;;;5.57;;
22034;SDS011;11181;51.002;4.356;2022-08-19T08:11:08;6.80;;;5.23;;
22034;SDS011;11181;51.002;4.356;2022-08-19T08:13:36;9.67;;;4.83;;
22034;SDS011;11181;51.002;4.356;2022-08-19T08:16:03;7.63;;;4.73;;
22034;SDS011;11181;51.002;4.356;2022-08-19T08:18:32;8.43;;;4.77;;
22034;SDS011;11181;51.002;4.356;2022-08-19T08:21:06;9.10;;;5.70;;
22034;SDS011;11181;51.002;4.356;2022-08-19T08:23:33;7.77;;;5.10;;
22034;SDS011;11181;51.002;4.356;2022-08-19T08:26:00;7.63;;;5.13;;
22034;SDS011;11181;51.002;4.356;2022-08-19T08:28:31;8.17;;;4.93;;
22034;SDS011;11181;51.002;4.356;2022-08-19T08:30:58;10.43;;;5.10;;
22034;SDS011;11181;51.002;4.356;2022-08-19T08:33:26;16.70;;;5.33;;
22034;SDS011;11181;51.002;4.356;2022-08-19T08:35:54;9.63;;;6.00;;
22034;SDS011;11181;51.002;4.356;2022-08-19T08:38:21;8.40;;;5.07;;
22034;SDS011;11181;51.002;4.356;2022-08-19T08:40:50;9.37;;;6.20;;
22034;SDS011;11181;51.002;4.356;2022-08-19T08:43:24;10.10;;;5.27;;
22034;SDS011;11181;51.002;4.356;2022-08-19T08:45:59;8.47;;;5.47;;
22034;SDS011;11181;51.002;4.356;2022-08-19T08:48:34;14.63;;;5.20;;
22034;SDS011;11181;51.002;4.356;2022-08-19T08:51:07;10.40;;;5.70;;
22034;SDS011;11181;51.002;4.356;2022-08-19T08:53:37;10.53;;;5.73;;
22034;SDS011;11181;51.002;4.356;2022-08-19T08:56:06;8.33;;;6.00;;
22034;SDS011;11181;51.002;4.356;2022-08-19T08:58:39;11.00;;;6.20;;
22034;SDS011;11181;51.002;4.356;2022-08-19T09:01:14;9.30;;;5.93;;
22034;SDS011;11181;51.002;4.356;2022-08-19T09:03:41;12.60;;;5.93;;
22034;SDS011;11181;51.002;4.356;2022-08-19T09:06:12;8.23;;;5.37;;
22034;SDS011;11181;51.002;4.356;2022-08-19T09:08:47;11.20;;;5.93;;
22034;SDS011;11181;51.002;4.356;2022-08-19T09:11:25;11.50;;;5.93;;
22034;SDS011;11181;51.002;4.356;2022-08-19T09:14:06;10.37;;;6.50;;
22034;SDS011;11181;51.002;4.356;2022-08-19T09:16:40;6.37;;;5.30;;
22034;SDS011;11181;51.002;4.356;2022-08-19T09:19:08;7.43;;;5.70;;
22034;SDS011;11181;51.002;4.356;2022-08-19T09:21:35;10.27;;;6.23;;
22034;SDS011;11181;51.002;4.356;2022-08-19T09:24:03;9.77;;;6.20;;
22034;SDS011;11181;51.002;4.356;2022-08-19T09:26:31;7.57;;;5.73;;
22034;SDS011;11181;51.002;4.356;2022-08-19T09:28:59;11.20;;;6.40;;
22034;SDS011;11181;51.002;4.356;2022-08-19T09:31:28;10.97;;;6.10;;
22034;SDS011;11181;51.002;4.356;2022-08-19T09:33:56;8.77;;;6.23;;
22034;SDS011;11181;51.002;4.356;2022-08-19T09:36:25;12.70;;;5.53;;
22034;SDS011;11181;51.002;4.356;2022-08-19T09:38:54;12.23;;;6.90;;
22034;SDS011;11181;51.002;4.356;2022-08-19T09:41:22;10.20;;;5.90;;
22034;SDS011;11181;51.002;4.356;2022-08-19T09:43:52;10.23;;;7.20;;
22034;SDS011;11181;51.002;4.356;2022-08-19T09:46:21;10.03;;;5.60;;
22034;SDS011;11181;51.002;4.356;2022-08-19T09:48:51;11.97;;;6.80;;
22034;SDS011;11181;51.002;4.356;2022-08-19T09:51:21;8.23;;;5.83;;
22034;SDS011;11181;51.002;4.356;2022-08-19T09:53:51;7.37;;;5.30;;
22034;SDS011;11181;51.002;4.356;2022-08-19T09:56:19;10.00;;;6.10;;
22034;SDS011;11181;51.002;4.356;2022-08-19T09:58:47;9.63;;;6.43;;
22034;SDS011;11181;51.002;4.356;2022-08-19T10:01:15;8.70;;;5.50;;
22034;SDS011;11181;51.002;4.356;2022-08-19T10:03:46;13.10;;;6.10;;
22034;SDS011;11181;51.002;4.356;2022-08-19T10:06:15;9.80;;;5.90;;
22034;SDS011;11181;51.002;4.356;2022-08-19T10:08:45;10.07;;;6.83;;
22034;SDS011;11181;51.002;4.356;2022-08-19T10:11:12;7.53;;;4.80;;
22034;SDS011;11181;51.002;4.356;2022-08-19T10:13:42;8.23;;;5.07;;
22034;SDS011;11181;51.002;4.356;2022-08-19T10:16:10;7.90;;;5.73;;
22034;SDS011;11181;51.002;4.356;2022-08-19T10:18:39;7.53;;;5.43;;
22034;SDS011;11181;51.002;4.356;2022-08-19T10:21:10;8.70;;;5.00;;
22034;SDS011;11181;51.002;4.356;2022-08-19T10:23:40;10.32;;;4.82;;
22034;SDS011;11181;51.002;4.356;2022-08-19T10:26:12;7.32;;;5.03;;
22034;SDS011;11181;51.002;4.356;2022-08-19T10:28:41;7.23;;;5.00;;
22034;SDS011;11181;51.002;4.356;2022-08-19T10:31:10;5.63;;;4.53;;
22034;SDS011;11181;51.002;4.356;2022-08-19T10:33:39;12.77;;;6.30;;
22034;SDS011;11181;51.002;4.356;2022-08-19T10:36:08;7.13;;;5.72;;
22034;SDS011;11181;51.002;4.356;2022-08-19T10:38:36;11.57;;;5.72;;
22034;SDS011;11181;51.002;4.356;2022-08-19T10:41:07;8.25;;;5.50;;
22034;SDS011;11181;51.002;4.356;2022-08-19T10:43:37;7.32;;;5.22;;
22034;SDS011;11181;51.002;4.356;2022-08-19T10:46:05;6.70;;;4.65;;
22034;SDS011;11181;51.002;4.356;2022-08-19T10:48:32;8.18;;;5.60;;
22034;SDS011;11181;51.002;4.356;2022-08-19T10:50:59;6.53;;;5.70;;
22034;SDS011;11181;51.002;4.356;2022-08-19T10:53:44;8.80;;;4.50;;
22034;SDS011;11181;51.002;4.356;2022-08-19T10:56:12;8.90;;;4.72;;
22034;SDS011;11181;51.002;4.356;2022-08-19T10:58:58;8.15;;;4.63;;
22034;SDS011;11181;51.002;4.356;2022-08-19T11:01:25;8.27;;;5.10;;
22034;SDS011;11181;51.002;4.356;2022-08-19T11:03:54;9.38;;;5.03;;
22034;SDS011;11181;51.002;4.356;2022-08-19T11:06:22;7.70;;;4.90;;
22034;SDS011;11181;51.002;4.356;2022-08-19T11:08:51;6.80;;;4.70;;
22034;SDS011;11181;51.002;4.356;2022-08-19T11:11:18;7.35;;;5.35;;
22034;SDS011;11181;51.002;4.356;2022-08-19T11:13:45;8.07;;;4.05;;
22034;SDS011;11181;51.002;4.356;2022-08-19T11:16:14;7.47;;;4.07;;
22034;SDS011;11181;51.002;4.356;2022-08-19T11:18:43;5.25;;;3.42;;
22034;SDS011;11181;51.002;4.356;2022-08-19T11:21:12;6.93;;;3.67;;
22034;SDS011;11181;51.002;4.356;2022-08-19T11:23:42;5.37;;;4.10;;
22034;SDS011;11181;51.002;4.356;2022-08-19T11:26:09;5.17;;;3.83;;
22034;SDS011;11181;51.002;4.356;2022-08-19T11:28:37;4.13;;;3.50;;
22034;SDS011;11181;51.002;4.356;2022-08-19T11:31:04;3.67;;;3.17;;
22034;SDS011;11181;51.002;4.356;2022-08-19T11:33:37;4.40;;;3.00;;
22034;SDS011;11181;51.002;4.356;2022-08-19T11:36:06;7.97;;;3.63;;
22034;SDS011;11181;51.002;4.356;2022-08-19T11:38:33;4.95;;;3.25;;
22034;SDS011;11181;51.002;4.356;2022-08-19T11:41:01;5.63;;;2.90;;
22034;SDS011;11181;51.002;4.356;2022-08-19T11:43:30;5.95;;;3.70;;
22034;SDS011;11181;51.002;4.356;2022-08-19T11:45:57;4.60;;;2.97;;
22034;SDS011;11181;51.002;4.356;2022-08-19T11:48:25;4.97;;;2.90;;
22034;SDS011;11181;51.002;4.356;2022-08-19T11:50:53;5.93;;;3.50;;
22034;SDS011;11181;51.002;4.356;2022-08-19T11:53:22;5.85;;;3.15;;
22034;SDS011;11181;51.002;4.356;2022-08-19T11:55:49;5.40;;;3.55;;
22034;SDS011;11181;51.002;4.356;2022-08-19T11:58:22;6.00;;;3.42;;
22034;SDS011;11181;51.002;4.356;2022-08-19T12:00:49;5.63;;;3.05;;
22034;SDS011;11181;51.002;4.356;2022-08-19T12:03:17;2.92;;;2.70;;
22034;SDS011;11181;51.002;4.356;2022-08-19T12:05:44;4.70;;;2.88;;
22034;SDS011;11181;51.002;4.356;2022-08-19T12:08:13;4.03;;;2.50;;
22034;SDS011;11181;51.002;4.356;2022-08-19T12:10:40;3.90;;;3.38;;
22034;SDS011;11181;51.002;4.356;2022-08-19T12:13:09;6.78;;;3.50;;
22034;SDS011;11181;51.002;4.356;2022-08-19T12:15:37;3.88;;;3.22;;
22034;SDS011;11181;51.002;4.356;2022-08-19T12:18:06;5.78;;;3.72;;
22034;SDS011;11181;51.002;4.356;2022-08-19T12:20:34;5.47;;;3.55;;
22034;SDS011;11181;51.002;4.356;2022-08-19T12:23:02;7.93;;;4.10;;
22034;SDS011;11181;51.002;4.356;2022-08-19T12:25:30;3.47;;;3.15;;
22034;SDS011;11181;51.002;4.356;2022-08-19T12:27:59;10.55;;;4.38;;
22034;SDS011;11181;51.002;4.356;2022-08-19T12:30:27;5.50;;;3.85;;
22034;SDS011;11181;51.002;4.356;2022-08-19T12:32:54;6.45;;;4.40;;
22034;SDS011;11181;51.002;4.356;2022-08-19T12:35:21;5.60;;;5.03;;
22034;SDS011;11181;51.002;4.356;2022-08-19T12:37:48;4.63;;;4.20;;
22034;SDS011;11181;51.002;4.356;2022-08-19T12:40:15;10.40;;;5.47;;
22034;SDS011;11181;51.002;4.356;2022-08-19T12:42:45;5.10;;;4.32;;
22034;SDS011;11181;51.002;4.356;2022-08-19T12:45:14;8.02;;;5.47;;
22034;SDS011;11181;51.002;4.356;2022-08-19T12:47:41;8.23;;;5.55;;
22034;SDS011;11181;51.002;4.356;2022-08-19T12:50:08;8.68;;;5.20;;
22034;SDS011;11181;51.002;4.356;2022-08-19T12:52:35;6.85;;;5.63;;
22034;SDS011;11181;51.002;4.356;2022-08-19T12:55:03;6.78;;;6.03;;
22034;SDS011;11181;51.002;4.356;2022-08-19T12:57:32;8.05;;;5.18;;
22034;SDS011;11181;51.002;4.356;2022-08-19T13:00:06;7.13;;;5.55;;
22034;SDS011;11181;51.002;4.356;2022-08-19T13:02:38;6.18;;;4.45;;
22034;SDS011;11181;51.002;4.356;2022-08-19T13:05:08;4.57;;;3.50;;
22034;SDS011;11181;51.002;4.356;2022-08-19T13:07:36;4.18;;;3.78;;
22034;SDS011;11181;51.002;4.356;2022-08-19T13:10:04;5.25;;;3.65;;
22034;SDS011;11181;51.002;4.356;2022-08-19T13:12:31;5.57;;;2.88;;
22034;SDS011;11181;51.002;4.356;2022-08-19T13:14:58;4.50;;;2.80;;
22034;SDS011;11181;51.002;4.356;2022-08-19T13:17:27;3.25;;;2.97;;
22034;SDS011;11181;51.002;4.356;2022-08-19T13:19:54;3.88;;;2.42;;
22034;SDS011;11181;51.002;4.356;2022-08-19T13:22:21;2.72;;;2.47;;
22034;SDS011;11181;51.002;4.356;2022-08-19T13:24:48;4.50;;;2.13;;
22034;SDS011;11181;51.002;4.356;2022-08-19T13:27:15;2.20;;;1.90;;
22034;SDS011;11181;51.002;4.356;2022-08-19T13:29:42;4.47;;;2.75;;
22034;SDS011;11181;51.002;4.356;2022-08-19T13:32:28;2.58;;;2.38;;
22034;SDS011;11181;51.002;4.356;2022-08-19T13:35:14;2.13;;;2.00;;
22034;SDS011;11181;51.002;4.356;2022-08-19T13:37:41;2.95;;;2.17;;
22034;SDS011;11181;51.002;4.356;2022-08-19T13:40:09;4.05;;;2.55;;
22034;SDS011;11181;51.002;4.356;2022-08-19T13:42:40;2.05;;;1.88;;
22034;SDS011;11181;51.002;4.356;2022-08-19T13:45:08;5.63;;;2.15;;
22034;SDS011;11181;51.002;4.356;2022-08-19T13:47:37;2.83;;;2.10;;
22034;SDS011;11181;51.002;4.356;2022-08-19T13:50:10;4.88;;;2.33;;
22034;SDS011;11181;51.002;4.356;2022-08-19T13:52:38;3.60;;;2.80;;
22034;SDS011;11181;51.002;4.356;2022-08-19T13:55:07;4.68;;;2.95;;
22034;SDS011;11181;51.002;4.356;2022-08-19T13:57:35;4.03;;;2.65;;
22034;SDS011;11181;51.002;4.356;2022-08-19T14:00:05;2.00;;;1.80;;
22034;SDS011;11181;51.002;4.356;2022-08-19T14:02:35;2.40;;;2.17;;
22034;SDS011;11181;51.002;4.356;2022-08-19T14:05:04;2.47;;;2.03;;
22034;SDS011;11181;51.002;4.356;2022-08-19T14:07:36;2.58;;;2.30;;
22034;SDS011;11181;51.002;4.356;2022-08-19T14:10:05;2.55;;;2.20;;
22034;SDS011;11181;51.002;4.356;2022-08-19T14:12:33;2.67;;;2.28;;
22034;SDS011;11181;51.002;4.356;2022-08-19T14:15:01;2.50;;;1.85;;
22034;SDS011;11181;51.002;4.356;2022-08-19T14:17:29;2.05;;;0.95;;
22034;SDS011;11181;51.002;4.356;2022-08-19T14:19:58;3.15;;;1.23;;
22034;SDS011;11181;51.002;4.356;2022-08-19T14:22:32;1.33;;;0.98;;
22034;SDS011;11181;51.002;4.356;2022-08-19T14:24:59;1.45;;;1.25;;
22034;SDS011;11181;51.002;4.356;2022-08-19T14:27:26;1.45;;;1.15;;
22034;SDS011;11181;51.002;4.356;2022-08-19T14:29:53;2.38;;;1.58;;
22034;SDS011;11181;51.002;4.356;2022-08-19T14:32:20;2.63;;;1.35;;
22034;SDS011;11181;51.002;4.356;2022-08-19T14:34:47;4.28;;;1.83;;
22034;SDS011;11181;51.002;4.356;2022-08-19T14:37:16;2.25;;;1.90;;
22034;SDS011;11181;51.002;4.356;2022-08-19T14:39:43;3.65;;;1.90;;
22034;SDS011;11181;51.002;4.356;2022-08-19T14:42:10;3.35;;;1.80;;